createdAt,value
2022-09-26T00:02:00.563Z,14.02
2022-09-26T00:04:32.963Z,14.55
2022-09-26T00:07:02.406Z,14.07
2022-09-26T00:09:33.258Z,14.40
2022-09-26T00:12:04.258Z,13.73
2022-09-26T00:14:33.755Z,14.10
2022-09-26T00:17:02.982Z,14.60
2022-09-26T00:19:32.315Z,13.88
2022-09-26T00:22:01.720Z,14.23
2022-09-26T00:24:32.342Z,14.10
2022-09-26T00:27:01.555Z,14.27
2022-09-26T00:29:31.194Z,13.07
2022-09-26T00:32:00.476Z,13.50
2022-09-26T00:34:29.801Z,13.70
2022-09-26T00:36:59.173Z,13.13
2022-09-26T00:39:28.400Z,13.77
2022-09-26T00:41:59.172Z,13.15
2022-09-26T00:44:45.953Z,14.13
2022-09-26T00:47:26.039Z,14.23
2022-09-26T00:49:59.845Z,14.70
2022-09-26T00:52:32.421Z,14.98
2022-09-26T00:55:05.478Z,15.35
2022-09-26T00:57:41.453Z,14.60
2022-09-26T01:00:14.873Z,15.00
2022-09-26T01:02:46.370Z,14.52
2022-09-26T01:05:19.905Z,15.02
2022-09-26T01:07:49.916Z,14.52
2022-09-26T01:12:50.323Z,15.13
2022-09-26T01:15:20.318Z,14.82
2022-09-26T01:17:52.084Z,15.55
2022-09-26T01:23:42.946Z,15.18
2022-09-26T01:26:49.341Z,13.88
2022-09-26T01:30:01.381Z,13.00
2022-09-26T01:33:07.662Z,13.02
2022-09-26T01:36:10.257Z,13.75
2022-09-26T01:38:52.763Z,13.82
2022-09-26T01:41:41.288Z,14.35
2022-09-26T01:44:21.044Z,14.07
2022-09-26T01:46:56.196Z,15.93
2022-09-26T01:49:32.632Z,14.45
2022-09-26T01:52:09.780Z,14.65
2022-09-26T01:54:43.029Z,14.73
2022-09-26T01:57:18.794Z,13.40
2022-09-26T01:59:54.261Z,14.65
2022-09-26T02:02:26.888Z,13.90
2022-09-26T02:05:01.693Z,13.82
2022-09-26T02:07:37.644Z,14.60
2022-09-26T02:10:13.242Z,14.10
2022-09-26T02:12:49.875Z,14.18
2022-09-26T02:15:21.743Z,13.43
2022-09-26T02:17:54.611Z,13.77
2022-09-26T02:20:31.382Z,13.68
2022-09-26T02:23:05.044Z,14.05
2022-09-26T02:25:35.861Z,13.45
2022-09-26T02:28:06.383Z,13.45
2022-09-26T02:30:36.220Z,13.18
2022-09-26T02:33:05.676Z,13.90
2022-09-26T02:35:56.490Z,14.18
2022-09-26T02:38:32.070Z,14.15
2022-09-26T02:41:51.742Z,13.98
2022-09-26T02:47:44.292Z,13.80
2022-09-26T02:50:33.763Z,12.95
2022-09-26T02:53:17.853Z,12.40
2022-09-26T02:56:03.835Z,12.55
2022-09-26T02:58:42.464Z,13.15
2022-09-26T03:01:19.817Z,13.90
2022-09-26T03:03:54.650Z,13.40
2022-09-26T03:06:30.873Z,13.95
2022-09-26T03:09:03.647Z,12.65
2022-09-26T03:11:35.152Z,14.00
2022-09-26T03:14:06.207Z,13.00
2022-09-26T03:16:39.427Z,14.73
2022-09-26T03:19:15.290Z,14.07
2022-09-26T03:21:45.696Z,14.38
2022-09-26T03:24:17.455Z,14.05
2022-09-26T03:26:48.851Z,13.43
2022-09-26T03:29:19.926Z,13.52
2022-09-26T03:31:50.417Z,13.18
2022-09-26T03:34:22.156Z,13.98
2022-09-26T03:36:52.834Z,13.98
2022-09-26T03:39:24.025Z,15.32
2022-09-26T03:42:02.686Z,15.52
2022-09-26T03:44:33.402Z,15.00
2022-09-26T03:47:14.713Z,14.23
2022-09-26T03:49:50.881Z,14.73
2022-09-26T03:52:20.089Z,14.30
2022-09-26T03:54:53.288Z,14.57
2022-09-26T03:57:23.194Z,14.30
2022-09-26T04:00:03.757Z,14.25
2022-09-26T04:02:45.385Z,14.60
2022-09-26T04:05:27.602Z,15.00
2022-09-26T04:07:57.367Z,15.82
2022-09-26T04:10:29.610Z,14.80
2022-09-26T04:12:59.714Z,15.43
2022-09-26T04:15:29.466Z,15.45
2022-09-26T04:18:11.624Z,15.63
2022-09-26T04:20:40.967Z,14.90
2022-09-26T04:23:10.958Z,15.30
2022-09-26T04:25:41.791Z,16.65
2022-09-26T04:28:11.008Z,15.63
2022-09-26T04:30:40.294Z,15.10
2022-09-26T04:33:10.812Z,15.35
2022-09-26T04:36:06.157Z,15.82
2022-09-26T04:38:35.692Z,16.88
2022-09-26T04:41:09.700Z,17.08
2022-09-26T04:43:40.179Z,16.20
2022-09-26T04:46:20.074Z,16.80
2022-09-26T04:48:53.955Z,18.60
2022-09-26T04:51:25.943Z,16.52
2022-09-26T04:53:56.251Z,16.63
2022-09-26T04:56:30.919Z,17.20
2022-09-26T04:59:02.280Z,17.05
2022-09-26T05:01:43.158Z,17.02
2022-09-26T05:04:16.962Z,18.98
2022-09-26T05:06:46.133Z,19.27
2022-09-26T05:09:25.324Z,18.10
2022-09-26T05:12:01.390Z,19.48
2022-09-26T05:14:30.997Z,18.92
2022-09-26T05:17:00.201Z,19.73
2022-09-26T05:19:29.736Z,18.97
2022-09-26T05:22:17.234Z,20.00
2022-09-26T05:25:03.864Z,18.03
2022-09-26T05:27:34.544Z,17.48
2022-09-26T05:30:04.112Z,17.92
2022-09-26T05:32:33.285Z,19.42
2022-09-26T05:35:05.641Z,18.30
2022-09-26T05:37:39.246Z,19.05
2022-09-26T05:40:26.248Z,19.65
2022-09-26T05:43:03.497Z,19.75
2022-09-26T05:45:33.401Z,19.92
2022-09-26T05:48:04.968Z,18.92
2022-09-26T05:50:35.561Z,20.08
2022-09-26T05:53:05.139Z,19.35
2022-09-26T05:55:37.507Z,20.38
2022-09-26T05:58:29.086Z,20.17
2022-09-26T06:01:24.409Z,20.93
2022-09-26T06:04:03.946Z,18.80
2022-09-26T06:06:38.652Z,19.17
2022-09-26T06:09:13.686Z,19.83
2022-09-26T06:12:03.461Z,19.05
2022-09-26T06:14:34.050Z,21.00
2022-09-26T06:17:03.400Z,20.88
2022-09-26T06:19:32.679Z,23.77
2022-09-26T06:22:02.073Z,19.63
2022-09-26T06:24:32.204Z,20.52
2022-09-26T06:27:04.270Z,23.25
2022-09-26T06:29:37.196Z,20.58
2022-09-26T06:32:06.678Z,20.10
2022-09-26T06:35:01.933Z,21.42
2022-09-26T06:37:49.822Z,20.27
2022-09-26T06:40:20.101Z,18.50
2022-09-26T06:42:49.536Z,20.05
2022-09-26T06:45:29.659Z,18.60
2022-09-26T06:48:20.997Z,18.48
2022-09-26T06:51:01.157Z,18.38
2022-09-26T06:53:32.442Z,19.73
2022-09-26T06:56:02.265Z,21.13
2022-09-26T06:58:34.405Z,20.77
2022-09-26T07:01:11.291Z,20.85
2022-09-26T07:03:59.133Z,20.70
2022-09-26T07:06:40.135Z,20.05
2022-09-26T07:09:12.444Z,21.02
2022-09-26T07:14:50.110Z,18.58
2022-09-26T07:17:31.955Z,20.90
2022-09-26T07:20:21.483Z,21.10
2022-09-26T07:23:17.397Z,21.08
2022-09-26T07:25:48.188Z,21.65
2022-09-26T07:28:17.607Z,21.17
2022-09-26T07:30:50.143Z,20.48
2022-09-26T07:33:49.938Z,19.42
2022-09-26T07:36:21.042Z,18.88
2022-09-26T07:38:51.271Z,19.98
2022-09-26T07:41:21.828Z,18.60
2022-09-26T07:44:46.172Z,19.83
2022-09-26T07:46:58.241Z,19.85
2022-09-26T07:49:46.502Z,20.85
2022-09-26T07:52:39.989Z,19.20
2022-09-26T07:55:28.088Z,18.52
2022-09-26T07:58:32.688Z,19.02
2022-09-26T08:01:19.291Z,19.30
2022-09-26T08:04:07.415Z,19.27
2022-09-26T08:06:41.326Z,20.13
2022-09-26T08:09:10.724Z,19.65
2022-09-26T08:12:11.882Z,19.27
2022-09-26T08:14:51.412Z,18.63
2022-09-26T08:17:24.810Z,19.80
2022-09-26T08:19:54.607Z,17.85
2022-09-26T08:22:25.319Z,19.03
2022-09-26T08:24:55.446Z,20.27
2022-09-26T08:28:00.137Z,19.25
2022-09-26T08:30:31.451Z,18.92
2022-09-26T08:33:03.193Z,18.63
2022-09-26T08:35:38.667Z,18.67
2022-09-26T08:38:18.027Z,17.80
2022-09-26T08:40:56.913Z,17.58
2022-09-26T08:44:01.747Z,17.90
2022-09-26T08:46:49.163Z,18.08
2022-09-26T08:49:51.414Z,18.05
2022-09-26T08:52:29.692Z,17.90
2022-09-26T08:55:05.936Z,16.88
2022-09-26T08:57:41.403Z,18.52
2022-09-26T09:00:22.651Z,18.10
2022-09-26T09:03:21.689Z,17.85
2022-09-26T09:05:54.365Z,17.92
2022-09-26T09:08:29.726Z,17.67
2022-09-26T09:11:31.843Z,18.88
2022-09-26T09:14:15.273Z,18.50
2022-09-26T09:17:15.061Z,17.73
2022-09-26T09:20:00.488Z,16.50
2022-09-26T09:23:12.140Z,17.25
2022-09-26T09:25:56.065Z,17.48
2022-09-26T09:28:35.963Z,16.48
2022-09-26T09:31:10.356Z,16.17
2022-09-26T09:34:03.349Z,17.05
2022-09-26T09:36:55.478Z,17.45
2022-09-26T09:39:47.619Z,15.73
2022-09-26T09:42:41.891Z,16.73
2022-09-26T09:45:19.514Z,12.65
2022-09-26T09:47:48.875Z,9.52
2022-09-26T09:50:35.756Z,8.90
2022-09-26T09:53:17.255Z,8.43
2022-09-26T09:55:59.491Z,7.95
2022-09-26T09:58:44.950Z,8.20
2022-09-26T10:01:25.630Z,8.27
2022-09-26T10:04:06.286Z,8.00
2022-09-26T10:06:45.068Z,8.32
2022-09-26T10:09:35.229Z,8.63
2022-09-26T10:12:44.932Z,7.85
2022-09-26T10:15:33.436Z,7.13
2022-09-26T10:18:27.457Z,7.22
2022-09-26T10:21:18.982Z,7.25
2022-09-26T10:23:51.443Z,6.50
2022-09-26T10:26:39.642Z,6.80
2022-09-26T10:29:25.502Z,6.80
2022-09-26T10:32:00.545Z,6.55
2022-09-26T10:34:34.107Z,6.90
2022-09-26T10:37:22.960Z,6.95
2022-09-26T10:40:16.352Z,6.78
2022-09-26T10:42:47.454Z,6.35
2022-09-26T10:45:21.255Z,6.78
2022-09-26T10:48:09.399Z,7.07
2022-09-26T10:51:00.600Z,6.72
2022-09-26T10:53:42.085Z,6.18
2022-09-26T10:56:16.955Z,5.40
2022-09-26T10:58:51.242Z,5.60
2022-09-26T11:01:25.654Z,5.43
2022-09-26T11:03:57.210Z,4.78
2022-09-26T11:06:32.954Z,4.65
2022-09-26T11:09:21.572Z,5.28
2022-09-26T11:12:25.387Z,5.00
2022-09-26T11:14:59.321Z,4.88
2022-09-26T11:17:47.884Z,5.00
2022-09-26T11:20:32.435Z,4.40
2022-09-26T11:23:14.268Z,5.25
2022-09-26T11:25:58.154Z,4.80
2022-09-26T11:28:34.429Z,5.38
2022-09-26T11:31:30.382Z,4.60
2022-09-26T11:34:28.883Z,5.50
2022-09-26T11:37:32.832Z,5.40
2022-09-26T11:40:23.825Z,4.70
2022-09-26T11:43:19.879Z,5.05
2022-09-26T11:46:07.157Z,5.20
2022-09-26T11:49:31.344Z,4.85
2022-09-26T11:55:10.798Z,5.03
2022-09-26T11:57:53.831Z,5.00
2022-09-26T12:00:28.029Z,4.80
2022-09-26T12:03:24.273Z,5.22
2022-09-26T12:06:01.295Z,4.93
2022-09-26T12:09:04.976Z,5.45
2022-09-26T12:11:42.632Z,4.95
2022-09-26T12:14:29.353Z,5.47
2022-09-26T12:17:09.629Z,5.20
2022-09-26T12:19:46.691Z,5.15
2022-09-26T12:22:29.822Z,5.57
2022-09-26T12:25:22.875Z,4.80
2022-09-26T12:28:06.220Z,5.38
2022-09-26T12:30:44.633Z,5.45
2022-09-26T12:33:40.816Z,4.97
2022-09-26T12:36:21.943Z,5.13
2022-09-26T12:39:06.253Z,4.45
2022-09-26T12:42:01.478Z,4.45
2022-09-26T12:44:57.692Z,4.65
2022-09-26T12:48:00.468Z,4.60
2022-09-26T12:50:39.768Z,4.50
2022-09-26T12:53:32.775Z,5.03
2022-09-26T12:56:08.248Z,4.55
2022-09-26T12:58:55.428Z,4.38
2022-09-26T13:01:43.576Z,4.45
2022-09-26T13:04:29.654Z,4.78
2022-09-26T13:07:19.351Z,4.95
2022-09-26T13:10:23.758Z,5.30
2022-09-26T13:13:18.186Z,4.72
2022-09-26T13:16:04.211Z,5.00
2022-09-26T13:18:39.848Z,5.40
2022-09-26T13:21:14.488Z,5.53
2022-09-26T13:23:52.978Z,4.95
2022-09-26T13:26:29.087Z,5.22
2022-09-26T13:29:20.671Z,6.00
2022-09-26T13:31:55.971Z,5.22
2022-09-26T13:34:32.545Z,5.40
2022-09-26T13:37:07.989Z,5.30
2022-09-26T13:39:49.213Z,5.18
2022-09-26T13:42:26.355Z,5.80
2022-09-26T13:45:07.215Z,5.47
2022-09-26T13:47:49.213Z,5.65
2022-09-26T13:50:25.041Z,5.60
2022-09-26T13:53:08.189Z,5.00
2022-09-26T13:55:39.374Z,4.85
2022-09-26T13:58:21.652Z,5.18
2022-09-26T14:00:53.425Z,5.60
2022-09-26T14:03:43.661Z,5.32
2022-09-26T14:06:33.786Z,5.43
2022-09-26T14:09:24.456Z,5.35
2022-09-26T14:12:13.836Z,5.38
2022-09-26T14:14:51.863Z,5.28
2022-09-26T14:18:03.803Z,4.95
2022-09-26T14:20:41.554Z,4.75
2022-09-26T14:23:41.619Z,4.82
2022-09-26T14:26:21.056Z,3.92
2022-09-26T14:28:55.209Z,3.50
2022-09-26T14:32:01.932Z,2.88
2022-09-26T14:34:39.588Z,2.92
2022-09-26T14:37:33.003Z,3.00
2022-09-26T14:40:20.896Z,3.00
2022-09-26T14:43:33.403Z,3.00
2022-09-26T14:46:06.639Z,2.88
2022-09-26T14:48:38.467Z,3.20
2022-09-26T14:51:27.313Z,3.40
2022-09-26T14:54:01.026Z,3.38
2022-09-26T14:56:43.182Z,2.97
2022-09-26T14:59:43.972Z,2.97
2022-09-26T15:02:39.409Z,2.90
2022-09-26T15:05:25.788Z,2.83
2022-09-26T15:07:57.027Z,3.25
2022-09-26T15:10:38.129Z,2.83
2022-09-26T15:13:20.641Z,3.08
2022-09-26T15:15:56.465Z,3.05
2022-09-26T15:18:35.919Z,3.00
2022-09-26T15:21:20.893Z,3.75
2022-09-26T15:23:53.390Z,3.30
2022-09-26T15:26:25.986Z,2.83
2022-09-26T15:28:57.980Z,3.08
2022-09-26T15:31:29.936Z,2.63
2022-09-26T15:34:06.322Z,2.78
2022-09-26T15:36:37.420Z,2.90
2022-09-26T15:39:42.383Z,2.70
2022-09-26T15:42:47.476Z,2.75
2022-09-26T15:45:29.835Z,2.95
2022-09-26T15:48:01.744Z,2.75
2022-09-26T15:50:40.915Z,2.92
2022-09-26T15:53:20.881Z,2.80
2022-09-26T15:55:54.519Z,3.03
2022-09-26T15:58:30.970Z,2.97
2022-09-26T16:01:00.769Z,3.13
2022-09-26T16:03:40.933Z,3.80
2022-09-26T16:06:24.221Z,4.43
2022-09-26T16:08:56.929Z,5.72
2022-09-26T16:11:26.930Z,7.00
2022-09-26T16:13:58.253Z,9.48
2022-09-26T16:16:32.284Z,6.40
2022-09-26T16:19:05.357Z,5.30
2022-09-26T16:21:37.738Z,10.63
2022-09-26T16:24:28.078Z,21.38
2022-09-26T16:26:58.105Z,25.95
2022-09-26T16:29:38.345Z,28.27
2022-09-26T16:32:19.399Z,29.50
2022-09-26T16:34:48.987Z,35.03
2022-09-26T16:37:23.090Z,35.95
2022-09-26T16:39:59.084Z,43.70
2022-09-26T16:42:32.793Z,32.17
2022-09-26T16:45:06.434Z,25.20
2022-09-26T16:47:42.976Z,20.73
2022-09-26T16:50:26.594Z,16.77
2022-09-26T16:52:57.606Z,13.20
2022-09-26T16:55:29.171Z,24.42
2022-09-26T16:58:01.054Z,28.48
2022-09-26T17:00:52.602Z,27.08
2022-09-26T17:03:25.185Z,23.20
2022-09-26T17:05:56.918Z,17.70
2022-09-26T17:08:29.577Z,19.33
2022-09-26T17:11:02.405Z,19.40
2022-09-26T17:13:35.288Z,15.80
2022-09-26T17:16:04.988Z,13.98
2022-09-26T17:18:35.805Z,14.32
2022-09-26T17:21:05.243Z,13.37
2022-09-26T17:23:41.429Z,13.80
2022-09-26T17:26:19.637Z,17.55
2022-09-26T17:28:49.879Z,25.50
2022-09-26T17:31:20.772Z,19.75
2022-09-26T17:33:52.682Z,19.42
2022-09-26T17:36:24.735Z,18.15
2022-09-26T17:38:59.359Z,17.10
2022-09-26T17:41:29.831Z,18.42
2022-09-26T17:46:30.426Z,27.05
2022-09-26T17:49:05.105Z,27.83
2022-09-26T17:51:36.237Z,26.27
2022-09-26T17:54:08.162Z,22.77
2022-09-26T17:56:37.600Z,18.48
2022-09-26T17:59:12.511Z,17.80
2022-09-26T18:01:42.124Z,17.40
2022-09-26T18:04:17.530Z,17.30
2022-09-26T18:06:47.467Z,19.60
2022-09-26T18:09:20.461Z,16.35
2022-09-26T18:11:58.965Z,16.73
2022-09-26T18:14:31.077Z,15.98
2022-09-26T18:17:01.450Z,14.13
2022-09-26T18:22:00.826Z,13.30
2022-09-26T18:24:31.905Z,12.68
2022-09-26T18:27:07.205Z,12.50
2022-09-26T18:29:40.109Z,11.20
2022-09-26T18:32:21.615Z,10.57
2022-09-26T18:34:51.100Z,12.00
2022-09-26T18:37:20.318Z,9.07
2022-09-26T18:39:54.676Z,10.35
2022-09-26T18:42:25.507Z,11.13
2022-09-26T18:45:03.619Z,10.30
2022-09-26T18:47:40.857Z,9.38
2022-09-26T18:50:19.433Z,11.25
2022-09-26T18:52:49.090Z,14.00
2022-09-26T18:55:43.682Z,14.77
2022-09-26T18:58:27.649Z,12.38
2022-09-26T19:01:02.425Z,11.15
2022-09-26T19:03:34.394Z,13.75
2022-09-26T19:06:07.192Z,13.70
2022-09-26T19:08:38.308Z,13.88
2022-09-26T19:11:15.172Z,12.75
2022-09-26T19:13:46.113Z,13.43
2022-09-26T19:16:17.215Z,13.05
2022-09-26T19:18:48.224Z,14.75
2022-09-26T19:21:26.128Z,13.82
2022-09-26T19:23:56.374Z,12.63
2022-09-26T19:26:31.256Z,11.70
2022-09-26T19:29:02.542Z,11.07
2022-09-26T19:31:32.200Z,10.45
2022-09-26T19:34:01.798Z,11.18
2022-09-26T19:36:31.279Z,10.93
2022-09-26T19:39:00.763Z,10.70
2022-09-26T19:41:31.666Z,10.70
2022-09-26T19:44:03.784Z,10.30
2022-09-26T19:46:37.135Z,10.15
2022-09-26T19:49:08.267Z,13.25
2022-09-26T19:51:39.781Z,12.13
2022-09-26T19:54:11.147Z,11.95
2022-09-26T19:56:43.160Z,11.40
2022-09-26T19:59:13.298Z,11.15
2022-09-26T20:01:44.068Z,11.40
2022-09-26T20:04:18.531Z,14.55
2022-09-26T20:06:48.478Z,12.60
2022-09-26T20:09:19.941Z,12.77
2022-09-26T20:11:50.903Z,11.68
2022-09-26T20:14:26.298Z,11.00
2022-09-26T20:16:59.264Z,16.60
2022-09-26T20:19:33.512Z,13.82
2022-09-26T20:22:05.294Z,11.00
2022-09-26T20:24:36.999Z,10.90
2022-09-26T20:27:09.323Z,11.63
2022-09-26T20:29:56.104Z,13.15
2022-09-26T20:32:26.144Z,12.45
2022-09-26T20:35:00.453Z,13.10
2022-09-26T20:37:32.393Z,13.45
2022-09-26T20:40:03.234Z,11.90
2022-09-26T20:42:38.203Z,12.00
2022-09-26T20:45:15.578Z,11.70
2022-09-26T20:47:46.271Z,12.15
2022-09-26T20:50:18.817Z,11.25
2022-09-26T20:52:48.414Z,13.77
2022-09-26T20:55:18.801Z,12.73
2022-09-26T20:57:50.808Z,10.88
2022-09-26T21:00:22.982Z,11.23
2022-09-26T21:02:54.435Z,10.60
2022-09-26T21:05:28.128Z,11.00
2022-09-26T21:07:59.249Z,10.43
2022-09-26T21:10:30.775Z,10.93
2022-09-26T21:13:02.314Z,11.43
2022-09-26T21:15:34.213Z,10.95
2022-09-26T21:18:03.893Z,10.70
2022-09-26T21:20:35.201Z,10.30
2022-09-26T21:23:20.687Z,10.90
2022-09-26T21:25:50.467Z,10.45
2022-09-26T21:28:28.931Z,10.95
2022-09-26T21:31:04.138Z,10.18
2022-09-26T21:33:33.518Z,9.05
2022-09-26T21:36:03.248Z,9.88
2022-09-26T21:38:32.680Z,10.52
2022-09-26T21:41:03.698Z,9.57
2022-09-26T21:43:40.846Z,9.75
2022-09-26T21:46:10.201Z,9.18
2022-09-26T21:48:39.766Z,8.90
2022-09-26T21:51:09.431Z,8.50
2022-09-26T21:53:45.688Z,10.18
2022-09-26T21:56:18.373Z,8.80
2022-09-26T21:58:49.880Z,9.50
2022-09-26T22:01:21.875Z,9.60
2022-09-26T22:03:54.141Z,8.48
2022-09-26T22:06:23.826Z,9.48
2022-09-26T22:08:53.048Z,9.47
2022-09-26T22:11:22.289Z,9.38
2022-09-26T22:13:53.127Z,9.30
2022-09-26T22:16:22.387Z,10.05
2022-09-26T22:18:51.630Z,10.10
2022-09-26T22:21:21.160Z,10.57
2022-09-26T22:23:51.356Z,9.77
2022-09-26T22:28:51.883Z,10.70
2022-09-26T22:31:21.255Z,9.52
2022-09-26T22:33:50.499Z,10.65
2022-09-26T22:36:19.911Z,10.38
2022-09-26T22:38:49.983Z,9.75
2022-09-26T22:41:19.181Z,10.05
2022-09-26T22:43:49.365Z,10.98
2022-09-26T22:46:20.283Z,10.38
2022-09-26T22:48:50.129Z,10.23
2022-09-26T22:51:19.434Z,9.40
2022-09-26T22:53:48.648Z,9.93
2022-09-26T22:56:18.153Z,10.00
2022-09-26T22:58:49.217Z,9.57
2022-09-26T23:01:22.469Z,10.38
2022-09-26T23:03:52.947Z,9.77
2022-09-26T23:06:23.623Z,9.35
2022-09-26T23:08:53.480Z,10.35
2022-09-26T23:11:22.801Z,10.50
2022-09-26T23:13:53.943Z,9.52
2022-09-26T23:16:27.155Z,10.52
2022-09-26T23:18:57.081Z,10.50
2022-09-26T23:21:28.362Z,10.38
2022-09-26T23:23:58.922Z,9.77
2022-09-26T23:26:29.822Z,9.32
2022-09-26T23:29:00.159Z,9.18
2022-09-26T23:31:30.855Z,9.50
2022-09-26T23:34:00.286Z,9.13
2022-09-26T23:36:29.648Z,10.32
2022-09-26T23:38:59.438Z,9.70
2022-09-26T23:41:28.904Z,9.18
2022-09-26T23:43:58.614Z,10.63
2022-09-26T23:46:29.318Z,10.30
2022-09-26T23:48:58.725Z,10.75
2022-09-26T23:51:27.986Z,10.82
2022-09-26T23:53:57.243Z,10.13
2022-09-26T23:56:26.662Z,9.85
2022-09-26T23:58:57.774Z,9.77
